createdAt,value
2019-05-19T00:00:46.239Z,0.20
2019-05-19T00:01:46.185Z,0.20
2019-05-19T00:03:39.399Z,0.20
2019-05-19T00:04:39.359Z,0.20
2019-05-19T00:06:32.174Z,0.20
2019-05-19T00:07:32.099Z,0.10
2019-05-19T00:09:24.909Z,0.20
2019-05-19T00:10:24.850Z,0.20
2019-05-19T00:12:17.659Z,0.20
2019-05-19T00:13:17.592Z,0.20
2019-05-19T00:15:10.396Z,0.10
2019-05-19T00:16:10.338Z,0.20
2019-05-19T00:18:03.154Z,0.20
2019-05-19T00:19:03.096Z,0.20
2019-05-19T00:20:55.904Z,0.20
2019-05-19T00:21:55.857Z,0.20
2019-05-19T00:23:48.635Z,0.20
2019-05-19T00:24:48.782Z,0.20
2019-05-19T00:26:41.870Z,0.10
2019-05-19T00:27:41.815Z,0.20
2019-05-19T00:29:34.598Z,0.30
2019-05-19T00:30:34.558Z,0.20
2019-05-19T00:32:27.365Z,0.20
2019-05-19T00:33:27.312Z,0.20
2019-05-19T00:35:20.302Z,0.20
2019-05-19T00:36:20.240Z,0.20
2019-05-19T00:38:13.050Z,0.20
2019-05-19T00:39:12.988Z,0.20
2019-05-19T00:41:05.790Z,0.20
2019-05-19T00:42:05.739Z,0.20
2019-05-19T00:43:58.560Z,0.10
2019-05-19T00:44:58.491Z,0.20
2019-05-19T00:46:51.334Z,0.20
2019-05-19T00:47:51.247Z,0.20
2019-05-19T00:49:44.044Z,0.20
2019-05-19T00:50:43.999Z,0.20
2019-05-19T00:52:36.811Z,0.20
2019-05-19T00:53:36.748Z,0.10
2019-05-19T00:55:29.544Z,0.20
2019-05-19T00:56:29.502Z,0.20
2019-05-19T00:58:22.325Z,0.20
2019-05-19T00:59:22.262Z,0.10
2019-05-19T01:01:15.055Z,0.20
2019-05-19T01:02:15.016Z,0.20
2019-05-19T01:04:07.828Z,0.20
2019-05-19T01:05:07.758Z,0.20
2019-05-19T01:07:00.578Z,0.10
2019-05-19T01:08:00.529Z,0.20
2019-05-19T01:09:53.314Z,0.20
2019-05-19T01:10:53.262Z,0.20
2019-05-19T01:12:46.074Z,0.30
2019-05-19T01:13:46.040Z,0.20
2019-05-19T01:15:38.801Z,0.20
2019-05-19T01:16:38.748Z,0.20
2019-05-19T01:18:31.571Z,0.20
2019-05-19T01:19:31.505Z,0.20
2019-05-19T01:21:24.303Z,0.20
2019-05-19T01:22:24.260Z,0.30
2019-05-19T01:24:17.079Z,0.20
2019-05-19T01:25:17.011Z,0.20
2019-05-19T01:27:09.863Z,0.10
2019-05-19T01:28:09.767Z,0.20
2019-05-19T01:30:02.568Z,0.20
2019-05-19T01:31:02.519Z,0.20
2019-05-19T01:32:55.332Z,0.20
2019-05-19T01:33:55.267Z,0.20
2019-05-19T01:35:48.066Z,0.30
2019-05-19T01:36:48.028Z,0.20
2019-05-19T01:38:40.846Z,0.20
2019-05-19T01:39:40.768Z,0.20
2019-05-19T01:41:33.988Z,0.20
2019-05-19T01:42:33.936Z,0.20
2019-05-19T01:44:26.755Z,0.20
2019-05-19T01:45:26.712Z,0.20
2019-05-19T01:47:19.480Z,0.20
2019-05-19T01:48:19.429Z,0.20
2019-05-19T01:50:17.946Z,0.20
2019-05-19T01:51:12.194Z,0.20
2019-05-19T01:53:05.089Z,0.20
2019-05-19T01:54:05.011Z,0.10
2019-05-19T01:55:57.810Z,0.10
2019-05-19T01:56:57.773Z,0.20
2019-05-19T01:58:50.590Z,0.20
2019-05-19T01:59:50.521Z,0.20
2019-05-19T02:01:43.316Z,0.20
2019-05-19T02:02:43.274Z,0.10
2019-05-19T02:04:36.573Z,0.20
2019-05-19T02:05:36.504Z,0.20
2019-05-19T02:07:29.845Z,0.10
2019-05-19T02:08:29.672Z,0.20
2019-05-19T02:10:22.512Z,0.20
2019-05-19T02:11:22.444Z,0.20
2019-05-19T02:13:15.260Z,0.20
2019-05-19T02:14:15.183Z,0.20
2019-05-19T02:16:08.183Z,0.20
2019-05-19T02:17:08.138Z,0.20
2019-05-19T02:19:00.965Z,0.20
2019-05-19T02:20:00.902Z,0.20
2019-05-19T02:21:53.688Z,0.20
2019-05-19T02:22:53.636Z,0.20
2019-05-19T02:24:46.463Z,0.20
2019-05-19T02:25:46.394Z,0.10
2019-05-19T02:27:39.186Z,0.20
2019-05-19T02:28:39.139Z,0.10
2019-05-19T02:30:32.501Z,0.20
2019-05-19T02:31:32.311Z,0.20
2019-05-19T02:33:25.195Z,0.10
2019-05-19T02:34:25.068Z,0.20
2019-05-19T02:36:17.872Z,0.20
2019-05-19T02:37:17.821Z,0.20
2019-05-19T02:39:10.642Z,0.20
2019-05-19T02:40:10.641Z,0.10
2019-05-19T02:42:03.374Z,0.20
2019-05-19T02:43:03.332Z,0.10
2019-05-19T02:44:56.145Z,0.10
2019-05-19T02:45:56.080Z,0.10
2019-05-19T02:47:48.903Z,0.20
2019-05-19T02:48:48.839Z,0.20
2019-05-19T02:50:51.468Z,0.20
2019-05-19T02:51:41.581Z,0.20
2019-05-19T02:53:34.380Z,0.20
2019-05-19T02:54:34.328Z,0.20
2019-05-19T02:56:27.592Z,0.20
2019-05-19T02:57:27.520Z,0.20
2019-05-19T02:59:20.805Z,0.20
2019-05-19T03:00:20.708Z,0.20
2019-05-19T03:02:13.764Z,0.20
2019-05-19T03:03:13.659Z,0.10
2019-05-19T03:05:06.475Z,0.20
2019-05-19T03:06:06.415Z,0.20
2019-05-19T03:07:59.239Z,0.20
2019-05-19T03:08:59.223Z,0.20
2019-05-19T03:10:52.001Z,0.20
2019-05-19T03:11:51.951Z,0.20
2019-05-19T03:13:44.735Z,0.20
2019-05-19T03:14:44.686Z,0.20
2019-05-19T03:16:37.504Z,0.10
2019-05-19T03:17:37.424Z,0.10
2019-05-19T03:19:30.683Z,0.20
2019-05-19T03:20:30.613Z,0.20
2019-05-19T03:22:23.893Z,0.20
2019-05-19T03:23:23.845Z,0.20
2019-05-19T03:25:16.654Z,0.10
2019-05-19T03:26:16.580Z,0.20
2019-05-19T03:28:09.384Z,0.20
2019-05-19T03:29:09.332Z,0.10
2019-05-19T03:31:02.151Z,0.20
2019-05-19T03:32:02.078Z,0.20
2019-05-19T03:33:55.076Z,0.10
2019-05-19T03:34:55.024Z,0.20
2019-05-19T03:36:47.841Z,0.20
2019-05-19T03:37:47.778Z,0.20
2019-05-19T03:39:40.837Z,0.20
2019-05-19T03:40:40.733Z,0.10
2019-05-19T03:42:33.521Z,0.20
2019-05-19T03:43:33.476Z,0.20
2019-05-19T03:45:26.303Z,0.20
2019-05-19T03:46:26.246Z,0.20
2019-05-19T03:48:19.468Z,0.20
2019-05-19T03:49:19.413Z,0.10
2019-05-19T03:51:29.182Z,0.20
2019-05-19T03:52:12.159Z,0.10
2019-05-19T03:54:04.954Z,0.20
2019-05-19T03:55:04.900Z,0.20
2019-05-19T03:56:57.864Z,0.20
2019-05-19T03:57:57.649Z,0.20
2019-05-19T03:59:50.457Z,0.20
2019-05-19T04:00:50.399Z,0.20
2019-05-19T04:02:43.404Z,0.10
2019-05-19T04:03:43.480Z,0.20
2019-05-19T04:05:36.153Z,0.10
2019-05-19T04:06:36.112Z,0.10
2019-05-19T04:08:28.878Z,0.20
2019-05-19T04:09:28.835Z,0.10
2019-05-19T04:11:22.087Z,0.20
2019-05-19T04:12:22.016Z,0.20
2019-05-19T04:14:14.798Z,0.20
2019-05-19T04:15:14.772Z,0.20
2019-05-19T04:17:07.569Z,0.20
2019-05-19T04:18:07.494Z,0.20
2019-05-19T04:20:00.300Z,0.20
2019-05-19T04:21:00.273Z,0.30
2019-05-19T04:22:53.064Z,0.20
2019-05-19T04:23:53.002Z,0.20
2019-05-19T04:25:45.808Z,0.20
2019-05-19T04:26:45.742Z,0.20
2019-05-19T04:28:39.567Z,0.20
2019-05-19T04:29:39.696Z,0.20
2019-05-19T04:31:32.313Z,0.20
2019-05-19T04:32:32.227Z,0.10
2019-05-19T04:34:25.286Z,0.20
2019-05-19T04:35:24.994Z,0.10
2019-05-19T04:37:18.263Z,0.20
2019-05-19T04:38:18.189Z,0.20
2019-05-19T04:40:11.429Z,0.20
2019-05-19T04:41:11.378Z,0.20
2019-05-19T04:43:04.209Z,0.20
2019-05-19T04:44:04.126Z,0.10
2019-05-19T04:45:56.941Z,0.10
2019-05-19T04:46:56.877Z,0.20
2019-05-19T04:48:49.683Z,0.10
2019-05-19T04:49:49.633Z,0.20
2019-05-19T04:51:42.455Z,0.10
2019-05-19T04:52:42.383Z,0.20
2019-05-19T04:54:35.181Z,0.20
2019-05-19T04:55:35.132Z,0.20
2019-05-19T04:57:27.949Z,0.20
2019-05-19T04:58:27.880Z,0.20
2019-05-19T05:00:21.126Z,0.10
2019-05-19T05:01:21.113Z,0.20
2019-05-19T07:37:00.073Z,0.20
2019-05-19T07:37:59.981Z,0.30
2019-05-19T07:39:52.794Z,0.20
2019-05-19T07:40:52.713Z,0.10
2019-05-19T07:42:45.497Z,0.10
2019-05-19T07:43:45.445Z,0.20
2019-05-19T07:45:38.252Z,0.10
2019-05-19T07:46:38.181Z,0.10
2019-05-19T07:48:31.122Z,0.20
2019-05-19T07:49:30.926Z,0.10
2019-05-19T07:51:23.748Z,0.20
2019-05-19T07:52:23.707Z,0.10
2019-05-19T07:54:16.469Z,0.20
2019-05-19T07:55:16.425Z,0.20
2019-05-19T07:57:09.232Z,0.20
2019-05-19T07:58:09.194Z,0.30
2019-05-19T08:00:02.032Z,0.20
2019-05-19T08:01:01.904Z,0.20
2019-05-19T08:02:55.141Z,0.10
2019-05-19T08:03:55.086Z,0.20
2019-05-19T08:04:55.044Z,0.20
2019-05-19T08:05:56.974Z,0.20
2019-05-19T08:06:55.098Z,0.20
2019-05-19T08:07:54.907Z,0.20
2019-05-19T08:08:54.858Z,0.10
2019-05-19T08:09:54.811Z,0.20
2019-05-19T08:10:54.763Z,0.20
2019-05-19T08:11:54.730Z,0.30
2019-05-19T08:12:54.677Z,0.20
2019-05-19T08:13:54.628Z,0.10
2019-05-19T08:14:54.586Z,0.20
2019-05-19T08:15:54.552Z,0.20
2019-05-19T08:16:54.491Z,0.10
2019-05-19T08:17:54.449Z,0.20
2019-05-19T08:18:54.403Z,0.30
2019-05-19T08:19:54.358Z,0.30
2019-05-19T08:20:54.339Z,0.30
2019-05-19T08:21:54.268Z,0.20
2019-05-19T08:22:54.223Z,0.20
2019-05-19T08:24:00.478Z,0.20
2019-05-19T08:24:54.141Z,0.20
2019-05-19T08:25:54.088Z,0.20
2019-05-19T08:26:54.046Z,0.30
2019-05-19T08:27:54.000Z,0.30
2019-05-19T08:28:53.965Z,0.30
2019-05-19T08:29:53.934Z,0.20
2019-05-19T08:30:53.882Z,0.20
2019-05-19T08:31:53.821Z,0.30
2019-05-19T08:32:53.774Z,0.30
2019-05-19T08:33:53.809Z,0.20
2019-05-19T08:34:53.685Z,0.20
2019-05-19T08:35:53.643Z,0.20
2019-05-19T08:36:53.598Z,0.20
2019-05-19T08:37:53.554Z,0.10
2019-05-19T08:38:53.574Z,0.20
2019-05-19T08:39:53.466Z,0.30
2019-05-19T08:40:53.445Z,0.20
2019-05-19T08:41:53.378Z,0.30
2019-05-19T08:42:53.333Z,0.20
2019-05-19T08:43:53.657Z,0.20
2019-05-19T08:44:53.244Z,0.20
2019-05-19T08:45:53.198Z,0.20
2019-05-19T08:46:53.153Z,0.30
2019-05-19T08:47:53.109Z,0.30
2019-05-19T08:48:53.066Z,0.30
2019-05-19T08:49:53.021Z,0.30
2019-05-19T08:50:52.975Z,0.20
2019-05-19T08:51:52.933Z,0.20
2019-05-19T08:52:52.896Z,0.30
2019-05-19T08:53:52.841Z,0.20
2019-05-19T08:54:52.798Z,0.20
2019-05-19T08:55:52.755Z,0.20
2019-05-19T08:56:52.707Z,0.20
2019-05-19T08:57:52.663Z,0.20
2019-05-19T08:58:52.620Z,0.30
2019-05-19T08:59:52.576Z,0.30
2019-05-19T09:00:52.538Z,0.50
2019-05-19T09:01:52.488Z,0.70
2019-05-19T09:02:52.455Z,0.60
2019-05-19T09:03:52.399Z,0.60
2019-05-19T09:04:52.373Z,0.50
2019-05-19T09:05:52.314Z,0.50
2019-05-19T09:06:52.266Z,0.40
2019-05-19T09:07:52.221Z,0.40
2019-05-19T09:08:52.240Z,0.30
2019-05-19T09:09:52.137Z,0.40
2019-05-19T09:10:52.094Z,1.10
2019-05-19T09:11:52.047Z,1.00
2019-05-19T09:12:52.001Z,0.80
2019-05-19T09:13:52.054Z,1.10
2019-05-19T09:14:51.910Z,0.60
2019-05-19T09:15:51.870Z,0.90
2019-05-19T09:16:51.826Z,1.00
2019-05-19T09:17:54.221Z,1.10
2019-05-19T09:18:51.744Z,1.40
2019-05-19T09:19:51.698Z,1.60
2019-05-19T09:20:51.645Z,1.80
2019-05-19T09:21:51.610Z,1.60
2019-05-19T09:22:51.556Z,0.90
2019-05-19T09:23:51.522Z,0.60
2019-05-19T09:24:51.468Z,0.50
2019-05-19T09:25:51.435Z,0.50
2019-05-19T09:26:51.415Z,0.40
2019-05-19T09:27:51.344Z,0.40
2019-05-19T09:28:51.288Z,0.30
2019-05-19T09:29:51.247Z,0.30
2019-05-19T09:30:51.252Z,0.30
2019-05-19T09:31:51.196Z,0.30
2019-05-19T09:32:51.113Z,0.30
2019-05-19T09:33:51.070Z,0.20
2019-05-19T09:34:51.024Z,0.30
2019-05-19T09:35:50.983Z,0.30
2019-05-19T09:36:50.938Z,0.30
2019-05-19T09:37:50.891Z,0.30
2019-05-19T09:38:50.846Z,0.40
2019-05-19T09:39:50.811Z,0.30
2019-05-19T09:40:50.757Z,0.30
2019-05-19T09:41:50.719Z,0.30
2019-05-19T09:42:50.665Z,0.30
2019-05-19T09:43:50.628Z,0.20
2019-05-19T09:44:50.653Z,0.30
2019-05-19T09:45:50.555Z,0.30
2019-05-19T09:46:50.489Z,0.30
2019-05-19T09:47:50.452Z,0.30
2019-05-19T09:48:50.402Z,0.20
2019-05-19T09:49:50.371Z,0.40
2019-05-19T09:50:50.364Z,0.40
2019-05-19T09:51:50.322Z,0.30
2019-05-19T09:52:50.222Z,0.30
2019-05-19T09:53:50.190Z,0.20
2019-05-19T09:54:50.135Z,0.20
2019-05-19T09:55:50.101Z,0.30
2019-05-19T09:56:50.049Z,0.30
2019-05-19T09:57:50.007Z,0.20
2019-05-19T09:58:49.961Z,0.30
2019-05-19T09:59:49.919Z,0.20
2019-05-19T10:00:49.899Z,0.30
2019-05-19T10:01:49.829Z,0.30
2019-05-19T10:02:49.782Z,0.20
2019-05-19T10:03:49.737Z,0.20
2019-05-19T10:04:49.711Z,0.30
2019-05-19T10:05:49.654Z,0.20
2019-05-19T10:06:49.609Z,0.20
2019-05-19T10:07:49.566Z,0.30
2019-05-19T10:08:49.522Z,0.30
2019-05-19T10:09:49.477Z,0.20
2019-05-19T10:10:49.448Z,0.20
2019-05-19T10:11:49.386Z,0.30
2019-05-19T10:12:49.346Z,0.30
2019-05-19T10:13:49.299Z,0.20
2019-05-19T10:14:49.259Z,0.20
2019-05-19T10:15:49.212Z,0.20
2019-05-19T10:16:49.582Z,0.30
2019-05-19T10:17:49.135Z,0.20
2019-05-19T10:18:49.079Z,0.20
2019-05-19T10:19:49.043Z,0.30
2019-05-19T10:20:50.474Z,0.20
2019-05-19T10:21:48.952Z,0.30
2019-05-19T10:22:48.901Z,0.20
2019-05-19T10:23:48.860Z,0.20
2019-05-19T10:24:59.641Z,0.30
2019-05-19T10:25:48.779Z,0.30
2019-05-19T10:26:48.725Z,0.30
2019-05-19T10:27:48.693Z,0.30
2019-05-19T10:28:48.637Z,0.30
2019-05-19T10:29:48.592Z,0.20
2019-05-19T10:30:48.547Z,0.30
2019-05-19T10:31:48.503Z,0.30
2019-05-19T10:32:48.458Z,0.30
2019-05-19T10:33:48.462Z,0.30
2019-05-19T10:34:48.372Z,0.30
2019-05-19T10:35:48.330Z,0.30
2019-05-19T10:36:48.286Z,0.20
2019-05-19T10:37:48.245Z,0.20
2019-05-19T10:38:48.207Z,0.30
2019-05-19T10:39:48.158Z,0.30
2019-05-19T10:40:48.130Z,0.30
2019-05-19T10:41:48.066Z,0.40
2019-05-19T10:42:48.048Z,0.30
2019-05-19T10:43:48.047Z,0.30
2019-05-19T10:44:47.933Z,0.30
2019-05-19T10:45:47.890Z,0.30
2019-05-19T10:46:47.843Z,0.30
2019-05-19T10:47:47.815Z,0.30
2019-05-19T10:48:47.754Z,0.30
2019-05-19T10:49:47.715Z,0.20
2019-05-19T10:50:47.667Z,0.30
2019-05-19T10:51:47.627Z,0.30
2019-05-19T10:52:47.578Z,0.30
2019-05-19T10:53:47.535Z,0.30
2019-05-19T10:54:47.493Z,0.30
2019-05-19T10:55:47.450Z,0.20
2019-05-19T10:56:47.404Z,0.30
2019-05-19T10:57:47.362Z,0.30
2019-05-19T10:58:47.316Z,0.30
2019-05-19T10:59:47.274Z,0.30
2019-05-19T11:00:47.229Z,0.30
2019-05-19T11:01:47.225Z,0.30
2019-05-19T11:02:47.140Z,0.30
2019-05-19T11:03:47.094Z,0.30
2019-05-19T11:04:47.051Z,0.20
2019-05-19T11:05:47.017Z,0.30
2019-05-19T11:06:46.961Z,0.40
2019-05-19T11:07:46.916Z,0.40
2019-05-19T11:08:46.874Z,0.30
2019-05-19T11:09:46.827Z,0.40
2019-05-19T11:10:46.801Z,0.40
2019-05-19T11:11:46.739Z,0.30
2019-05-19T11:12:47.078Z,0.40
2019-05-19T11:13:46.656Z,0.40
2019-05-19T11:14:46.644Z,0.40
2019-05-19T11:15:46.566Z,0.40
2019-05-19T11:16:46.521Z,0.30
2019-05-19T11:17:46.496Z,0.30
2019-05-19T11:18:46.437Z,0.40
2019-05-19T11:19:46.391Z,0.30
2019-05-19T11:20:46.362Z,0.20
2019-05-19T11:21:46.304Z,0.30
2019-05-19T11:22:46.258Z,0.30
2019-05-19T11:23:46.213Z,0.30
2019-05-19T11:24:46.167Z,0.30
2019-05-19T11:25:51.597Z,0.20
2019-05-19T11:26:46.086Z,0.30
2019-05-19T11:27:46.038Z,0.30
2019-05-19T11:28:45.989Z,0.30
2019-05-19T11:29:45.949Z,0.30
2019-05-19T11:30:45.908Z,0.20
2019-05-19T11:31:45.914Z,0.20
2019-05-19T11:32:45.844Z,0.30
2019-05-19T11:33:45.777Z,0.20
2019-05-19T11:34:45.730Z,0.20
2019-05-19T11:35:45.688Z,0.20
2019-05-19T11:36:45.649Z,0.20
2019-05-19T11:37:45.596Z,0.30
2019-05-19T11:38:45.557Z,0.40
2019-05-19T11:39:45.517Z,0.20
2019-05-19T11:40:45.463Z,0.30
2019-05-19T11:41:45.450Z,0.30
2019-05-19T11:42:46.949Z,0.30
2019-05-19T11:43:45.333Z,0.30
2019-05-19T11:44:45.307Z,0.20
2019-05-19T11:45:45.265Z,0.30
2019-05-19T11:46:45.201Z,0.20
2019-05-19T11:47:45.197Z,0.20
2019-05-19T11:48:45.110Z,0.30
2019-05-19T11:49:45.069Z,0.30
2019-05-19T11:50:45.019Z,0.30
2019-05-19T11:51:44.981Z,0.30
2019-05-19T11:52:44.938Z,0.30
2019-05-19T11:53:44.892Z,0.20
2019-05-19T11:54:44.847Z,0.30
2019-05-19T11:55:44.808Z,0.20
2019-05-19T11:56:44.783Z,0.30
2019-05-19T11:57:44.721Z,0.30
2019-05-19T11:58:44.683Z,0.20
2019-05-19T11:59:44.631Z,0.20
2019-05-19T12:00:44.582Z,0.20
2019-05-19T12:01:44.541Z,0.30
2019-05-19T12:02:44.511Z,0.20
2019-05-19T12:03:44.454Z,0.20
2019-05-19T12:04:44.407Z,0.20
2019-05-19T12:05:44.361Z,0.30
2019-05-19T12:06:44.337Z,0.30
2019-05-19T12:07:44.277Z,0.30
2019-05-19T12:08:44.229Z,0.20
2019-05-19T12:09:44.188Z,0.30
2019-05-19T12:10:44.145Z,0.20
2019-05-19T12:11:44.105Z,0.30
2019-05-19T12:12:44.056Z,0.20
2019-05-19T12:13:44.016Z,0.30
2019-05-19T12:14:43.990Z,0.30
2019-05-19T12:15:43.948Z,0.30
2019-05-19T12:16:43.882Z,0.20
2019-05-19T12:17:43.836Z,0.40
2019-05-19T12:18:43.810Z,0.30
2019-05-19T12:19:43.751Z,0.30
2019-05-19T12:20:43.700Z,0.30
2019-05-19T12:21:43.661Z,0.20
2019-05-19T12:22:43.618Z,0.30
2019-05-19T12:23:43.574Z,0.30
2019-05-19T12:24:43.534Z,0.40
2019-05-19T12:25:43.485Z,0.20
2019-05-19T12:26:43.441Z,0.30
2019-05-19T12:27:43.398Z,0.40
2019-05-19T12:28:43.351Z,0.30
2019-05-19T12:29:43.313Z,0.20
2019-05-19T12:30:43.271Z,0.30
2019-05-19T12:31:43.222Z,0.30
2019-05-19T12:32:43.176Z,0.20
2019-05-19T12:33:51.475Z,0.30
2019-05-19T12:34:43.084Z,0.40
2019-05-19T12:35:43.047Z,0.20
2019-05-19T12:36:43.017Z,0.20
2019-05-19T12:37:42.957Z,0.20
2019-05-19T12:38:42.914Z,0.20
2019-05-19T12:39:42.871Z,0.30
2019-05-19T12:40:42.825Z,0.20
2019-05-19T12:41:42.784Z,0.20
2019-05-19T12:42:42.737Z,0.20
2019-05-19T12:43:42.694Z,0.20
2019-05-19T12:44:42.648Z,0.20
2019-05-19T12:45:42.618Z,0.30
2019-05-19T12:46:42.557Z,0.30
2019-05-19T12:47:42.530Z,0.30
2019-05-19T12:48:42.477Z,0.20
2019-05-19T12:49:42.439Z,0.20
2019-05-19T12:50:42.385Z,0.30
2019-05-19T12:51:42.344Z,0.30
2019-05-19T12:52:42.309Z,0.20
2019-05-19T12:53:42.261Z,0.30
2019-05-19T12:54:42.387Z,0.20
2019-05-19T12:55:42.172Z,0.10
2019-05-19T12:56:42.122Z,0.30
2019-05-19T12:57:42.076Z,0.30
2019-05-19T12:58:42.041Z,0.30
2019-05-19T12:59:41.990Z,0.30
2019-05-19T13:00:42.092Z,0.20
2019-05-19T13:01:41.900Z,0.20
2019-05-19T13:02:41.859Z,0.20
2019-05-19T13:03:41.811Z,0.20
2019-05-19T13:04:41.770Z,0.20
2019-05-19T13:05:41.726Z,0.20
2019-05-19T13:06:41.688Z,0.20
2019-05-19T13:07:41.689Z,0.20
2019-05-19T13:08:41.589Z,0.20
2019-05-19T13:09:41.552Z,0.20
2019-05-19T13:10:41.505Z,0.20
2019-05-19T13:11:41.463Z,0.20
2019-05-19T13:12:41.414Z,0.20
2019-05-19T13:13:41.392Z,0.30
2019-05-19T13:14:41.329Z,0.20
2019-05-19T13:15:41.285Z,0.20
2019-05-19T13:16:41.243Z,0.30
2019-05-19T13:17:41.205Z,0.20
2019-05-19T13:18:41.158Z,0.30
2019-05-19T13:19:41.130Z,0.30
2019-05-19T13:20:41.067Z,0.30
2019-05-19T13:21:41.018Z,0.20
2019-05-19T13:22:40.997Z,0.20
2019-05-19T13:23:40.933Z,0.30
2019-05-19T13:24:40.887Z,0.20
2019-05-19T13:25:40.844Z,0.30
2019-05-19T13:26:55.524Z,0.30
2019-05-19T13:27:40.760Z,0.20
2019-05-19T13:28:40.718Z,0.20
2019-05-19T13:29:40.690Z,0.30
2019-05-19T13:30:43.465Z,0.20
2019-05-19T13:31:40.583Z,0.30
2019-05-19T13:32:40.536Z,0.20
2019-05-19T13:33:40.518Z,0.20
2019-05-19T13:34:40.454Z,0.20
2019-05-19T13:35:40.419Z,0.20
2019-05-19T13:36:40.571Z,0.20
2019-05-19T13:37:40.323Z,0.30
2019-05-19T13:38:40.274Z,0.30
2019-05-19T13:39:40.232Z,0.30
2019-05-19T13:40:40.232Z,0.30
2019-05-19T13:41:40.143Z,0.20
2019-05-19T13:42:40.096Z,0.30
2019-05-19T13:43:40.055Z,0.20
2019-05-19T13:44:40.011Z,0.30
2019-05-19T13:45:39.969Z,0.20
2019-05-19T13:46:39.919Z,0.20
2019-05-19T13:47:39.878Z,0.20
2019-05-19T13:48:39.834Z,0.20
2019-05-19T13:49:39.790Z,0.20
2019-05-19T13:50:39.744Z,0.20
2019-05-19T13:51:39.705Z,0.20
2019-05-19T13:52:39.660Z,0.20
2019-05-19T13:53:39.670Z,0.10
2019-05-19T13:54:39.570Z,0.20
2019-05-19T13:55:39.531Z,0.30
2019-05-19T13:56:39.477Z,0.20
2019-05-19T13:57:39.444Z,0.20
2019-05-19T13:58:39.411Z,0.20
2019-05-19T13:59:39.359Z,0.20
2019-05-19T14:00:39.333Z,0.20
2019-05-19T14:01:39.265Z,0.20
2019-05-19T14:02:39.221Z,0.20
2019-05-19T14:03:39.226Z,0.30
2019-05-19T14:04:39.134Z,0.30
2019-05-19T14:05:39.087Z,0.30
2019-05-19T14:06:39.181Z,0.20
2019-05-19T14:07:39.004Z,0.20
2019-05-19T14:08:38.957Z,0.20
2019-05-19T14:09:38.912Z,0.30
2019-05-19T14:10:38.867Z,0.20
2019-05-19T14:11:38.824Z,0.20
2019-05-19T14:12:38.789Z,0.20
2019-05-19T14:13:38.737Z,0.20
2019-05-19T14:14:38.737Z,0.20
2019-05-19T14:15:38.649Z,0.30
2019-05-19T14:16:38.606Z,0.20
2019-05-19T14:17:38.936Z,0.20
2019-05-19T14:18:38.525Z,0.20
2019-05-19T14:19:38.477Z,0.20
2019-05-19T14:20:38.433Z,0.30
2019-05-19T14:21:38.385Z,0.20
2019-05-19T14:22:38.344Z,0.20
2019-05-19T14:23:38.306Z,0.10
2019-05-19T14:24:38.254Z,0.30
2019-05-19T14:25:38.212Z,0.30
2019-05-19T14:26:38.170Z,0.30
2019-05-19T14:27:38.125Z,0.30
2019-05-19T14:28:38.078Z,0.30
2019-05-19T14:29:38.034Z,0.30
2019-05-19T14:30:37.988Z,0.20
2019-05-19T14:31:37.945Z,0.30
2019-05-19T14:32:37.900Z,0.30
2019-05-19T14:33:37.860Z,0.30
2019-05-19T14:34:37.812Z,0.20
2019-05-19T14:35:37.809Z,0.30
2019-05-19T14:36:37.724Z,0.30
2019-05-19T14:37:37.686Z,0.30
2019-05-19T14:38:37.635Z,0.30
2019-05-19T14:39:37.595Z,0.30
2019-05-19T14:40:37.544Z,0.20
2019-05-19T14:41:37.505Z,0.30
2019-05-19T14:42:37.461Z,0.30
2019-05-19T14:43:37.420Z,0.30
2019-05-19T14:44:37.377Z,0.30
2019-05-19T14:45:37.360Z,0.30
2019-05-19T14:46:37.286Z,0.20
2019-05-19T14:47:37.307Z,0.20
2019-05-19T14:48:37.190Z,0.20
2019-05-19T14:49:37.153Z,0.30
2019-05-19T14:50:37.110Z,0.20
2019-05-19T14:51:37.066Z,0.20
2019-05-19T14:52:37.050Z,0.30
2019-05-19T14:53:36.988Z,0.20
2019-05-19T14:54:36.938Z,0.20
2019-05-19T14:55:36.895Z,0.20
2019-05-19T14:56:36.846Z,0.20
2019-05-19T14:57:44.983Z,0.20
2019-05-19T14:58:36.760Z,0.20
2019-05-19T14:59:36.708Z,0.20
2019-05-19T15:00:36.698Z,0.40
2019-05-19T15:01:36.627Z,0.30
2019-05-19T15:02:36.587Z,0.30
2019-05-19T15:03:36.534Z,0.30
2019-05-19T15:04:36.497Z,0.20
2019-05-19T15:05:36.453Z,0.20
2019-05-19T15:06:36.408Z,0.20
2019-05-19T15:07:36.402Z,0.20
2019-05-19T15:08:36.329Z,0.20
2019-05-19T15:09:36.283Z,0.20
2019-05-19T15:10:36.234Z,0.20
2019-05-19T15:11:36.189Z,0.30
2019-05-19T15:12:36.145Z,0.30
2019-05-19T15:13:36.111Z,0.30
2019-05-19T15:14:36.061Z,0.30
2019-05-19T15:15:36.055Z,0.20
2019-05-19T15:16:35.978Z,0.20
2019-05-19T15:17:35.944Z,0.20
2019-05-19T15:18:35.892Z,0.20
2019-05-19T15:19:35.838Z,0.20
2019-05-19T15:20:35.792Z,0.20
2019-05-19T15:21:35.749Z,0.20
2019-05-19T15:22:35.708Z,0.20
2019-05-19T15:23:35.662Z,0.20
2019-05-19T15:24:35.617Z,0.20
2019-05-19T15:25:35.572Z,0.30
2019-05-19T15:26:35.527Z,0.30
2019-05-19T15:27:35.489Z,0.10
2019-05-19T15:28:35.694Z,0.20
2019-05-19T15:29:35.394Z,0.20
2019-05-19T15:30:35.358Z,0.30
2019-05-19T15:31:35.339Z,0.20
2019-05-19T15:32:35.271Z,0.30
2019-05-19T15:33:38.312Z,0.20
2019-05-19T15:34:35.179Z,0.20
2019-05-19T15:35:35.136Z,0.30
2019-05-19T15:36:35.094Z,0.20
2019-05-19T15:37:35.051Z,0.20
2019-05-19T15:38:35.008Z,0.20
2019-05-19T15:39:34.959Z,0.20
2019-05-19T15:40:34.913Z,0.20
2019-05-19T15:41:34.909Z,0.20
2019-05-19T15:42:34.831Z,0.30
2019-05-19T15:43:34.781Z,0.20
2019-05-19T15:44:34.744Z,0.20
2019-05-19T15:45:34.693Z,0.20
2019-05-19T15:46:34.651Z,0.20
2019-05-19T15:47:34.602Z,0.10
2019-05-19T15:48:34.564Z,0.20
2019-05-19T15:49:34.525Z,0.20
2019-05-19T15:50:34.479Z,0.20
2019-05-19T15:51:37.766Z,0.20
2019-05-19T15:52:34.387Z,0.20
2019-05-19T15:53:34.355Z,0.20
2019-05-19T15:54:34.299Z,0.20
2019-05-19T15:55:34.255Z,0.20
2019-05-19T15:56:34.215Z,0.20
2019-05-19T15:57:34.167Z,0.30
2019-05-19T15:58:34.185Z,0.20
2019-05-19T15:59:34.089Z,0.20
2019-05-19T16:00:34.045Z,0.20
2019-05-19T16:01:33.991Z,0.20
2019-05-19T16:02:33.961Z,0.20
2019-05-19T16:03:33.906Z,0.10
2019-05-19T16:04:33.867Z,0.20
2019-05-19T16:05:33.847Z,0.10
2019-05-19T16:06:33.785Z,0.20
2019-05-19T16:07:33.734Z,0.20
2019-05-19T16:08:33.706Z,0.20
2019-05-19T16:09:33.647Z,0.20
2019-05-19T16:10:33.601Z,0.20
2019-05-19T16:11:33.559Z,0.20
2019-05-19T16:12:33.513Z,0.20
2019-05-19T16:13:33.465Z,0.20
2019-05-19T16:14:33.422Z,0.20
2019-05-19T16:15:33.378Z,0.20
2019-05-19T16:16:33.338Z,0.20
2019-05-19T16:17:33.288Z,0.10
2019-05-19T16:18:33.247Z,0.20
2019-05-19T16:19:33.203Z,0.20
2019-05-19T16:20:33.155Z,0.20
2019-05-19T16:21:33.112Z,0.20
2019-05-19T16:22:33.074Z,0.10
2019-05-19T16:23:33.024Z,0.20
2019-05-19T16:24:32.979Z,0.10
2019-05-19T16:25:32.937Z,0.20
2019-05-19T16:26:32.893Z,0.20
2019-05-19T16:27:32.848Z,0.20
2019-05-19T16:28:32.812Z,0.20
2019-05-19T16:29:32.758Z,0.10
2019-05-19T16:30:32.722Z,0.20
2019-05-19T16:31:32.673Z,0.20
2019-05-19T16:32:32.631Z,0.20
2019-05-19T16:33:32.584Z,0.20
2019-05-19T16:34:32.629Z,0.20
2019-05-19T16:35:32.502Z,0.20
2019-05-19T16:36:32.538Z,0.20
2019-05-19T16:37:32.411Z,0.10
2019-05-19T16:38:32.368Z,0.10
2019-05-19T16:39:32.323Z,0.20
2019-05-19T16:40:32.287Z,0.10
2019-05-19T16:41:32.234Z,0.20
2019-05-19T16:42:32.191Z,0.10
2019-05-19T16:43:32.188Z,0.20
2019-05-19T16:44:32.099Z,0.10
2019-05-19T16:45:32.167Z,0.20
2019-05-19T16:46:32.014Z,0.20
2019-05-19T16:47:31.976Z,0.20
2019-05-19T16:48:31.928Z,0.20
2019-05-19T16:49:31.884Z,0.20
2019-05-19T16:50:31.838Z,0.20
2019-05-19T16:51:31.842Z,0.20
2019-05-19T16:52:31.785Z,0.20
2019-05-19T16:53:31.708Z,0.20
2019-05-19T16:54:31.670Z,0.20
2019-05-19T16:55:31.620Z,0.10
2019-05-19T16:56:31.581Z,0.20
2019-05-19T16:57:31.534Z,0.20
2019-05-19T16:58:44.409Z,0.10
2019-05-19T16:59:31.449Z,0.10
2019-05-19T17:00:31.405Z,0.20
2019-05-19T17:01:31.358Z,0.20
2019-05-19T17:02:31.319Z,0.20
2019-05-19T17:03:31.270Z,0.20
2019-05-19T17:04:31.230Z,0.20
2019-05-19T17:05:31.238Z,0.10
2019-05-19T17:06:31.142Z,0.20
2019-05-19T17:07:31.096Z,0.20
2019-05-19T17:08:31.073Z,0.20
2019-05-19T17:09:31.007Z,0.10
2019-05-19T17:10:30.961Z,0.20
2019-05-19T17:11:30.938Z,0.20
2019-05-19T17:12:30.877Z,0.10
2019-05-19T17:13:30.828Z,0.20
2019-05-19T17:14:31.156Z,0.20
2019-05-19T17:15:30.755Z,0.20
2019-05-19T17:16:30.697Z,0.20
2019-05-19T17:17:30.657Z,0.20
2019-05-19T17:18:30.616Z,0.20
2019-05-19T17:19:30.567Z,0.20
2019-05-19T17:20:31.133Z,0.20
2019-05-19T17:21:30.480Z,0.10
2019-05-19T17:22:30.434Z,0.20
2019-05-19T17:23:30.417Z,0.20
2019-05-19T17:24:30.351Z,0.20
2019-05-19T17:25:30.317Z,0.20
2019-05-19T17:26:30.261Z,0.20
2019-05-19T17:27:30.222Z,0.20
